createdAt,value
2019-03-15T00:01:00.816Z,3.34
2019-03-15T00:03:27.848Z,3.44
2019-03-15T00:05:55.224Z,3.46
2019-03-15T00:08:23.483Z,3.54
2019-03-15T00:10:50.534Z,3.64
2019-03-15T00:13:17.578Z,3.68
2019-03-15T00:15:44.631Z,3.73
2019-03-15T00:18:11.917Z,3.72
2019-03-15T00:20:38.977Z,3.71
2019-03-15T00:23:06.285Z,3.79
2019-03-15T00:25:33.341Z,3.81
2019-03-15T00:28:00.384Z,3.82
2019-03-15T00:30:27.448Z,3.86
2019-03-15T00:32:54.784Z,3.88
2019-03-15T00:35:21.894Z,3.91
2019-03-15T00:37:48.954Z,3.96
2019-03-15T00:40:16.747Z,3.98
2019-03-15T00:42:44.117Z,3.99
2019-03-15T00:45:11.166Z,4.01
2019-03-15T00:47:38.216Z,4.03
2019-03-15T00:50:05.552Z,4.03
2019-03-15T00:52:32.907Z,4.03
2019-03-15T00:55:00.482Z,4.04
2019-03-15T00:57:27.566Z,4.03
2019-03-15T00:59:54.872Z,4.09
2019-03-15T01:02:22.228Z,4.06
2019-03-15T01:04:49.474Z,4.06
2019-03-15T01:07:16.527Z,4.01
2019-03-15T01:09:43.881Z,4.03
2019-03-15T01:12:11.190Z,4.07
2019-03-15T01:14:38.228Z,4.05
2019-03-15T01:17:05.637Z,3.96
2019-03-15T01:19:32.676Z,3.87
2019-03-15T01:22:00.772Z,3.80
2019-03-15T01:24:28.110Z,3.82
2019-03-15T01:26:56.128Z,3.85
2019-03-15T01:29:23.452Z,3.85
2019-03-15T01:31:50.795Z,3.85
2019-03-15T01:34:18.147Z,3.83
2019-03-15T01:36:45.442Z,3.85
2019-03-15T01:39:12.767Z,3.85
2019-03-15T01:41:40.111Z,3.86
2019-03-15T01:44:07.481Z,3.85
2019-03-15T01:46:34.822Z,3.71
2019-03-15T01:49:02.179Z,3.49
2019-03-15T01:51:29.215Z,3.28
2019-03-15T01:53:56.579Z,3.22
2019-03-15T01:56:25.128Z,3.17
2019-03-15T01:58:52.185Z,3.06
2019-03-15T02:01:19.582Z,3.03
2019-03-15T02:03:46.937Z,3.10
2019-03-15T02:06:13.974Z,3.23
2019-03-15T02:08:41.323Z,3.33
2019-03-15T02:11:08.677Z,3.38
2019-03-15T02:13:36.095Z,3.42
2019-03-15T02:16:03.088Z,3.46
2019-03-15T02:18:30.453Z,3.50
2019-03-15T02:20:57.577Z,3.38
2019-03-15T02:23:24.621Z,3.26
2019-03-15T02:25:52.037Z,3.18
2019-03-15T02:28:19.346Z,3.19
2019-03-15T02:30:46.699Z,3.23
2019-03-15T02:33:13.827Z,3.24
2019-03-15T02:35:41.208Z,3.26
2019-03-15T02:38:08.577Z,3.31
2019-03-15T02:40:35.611Z,3.32
2019-03-15T02:43:02.671Z,3.31
2019-03-15T02:45:30.013Z,3.27
2019-03-15T02:47:57.380Z,3.25
2019-03-15T02:50:24.400Z,3.19
2019-03-15T02:52:51.768Z,3.15
2019-03-15T02:55:18.812Z,3.09
2019-03-15T02:57:46.192Z,3.04
2019-03-15T03:00:13.989Z,3.01
2019-03-15T03:02:41.599Z,2.97
2019-03-15T03:05:08.632Z,2.95
2019-03-15T03:07:35.671Z,2.94
2019-03-15T03:10:02.732Z,3.02
2019-03-15T03:12:30.918Z,3.11
2019-03-15T03:14:58.366Z,3.18
2019-03-15T03:17:26.015Z,3.28
2019-03-15T03:19:54.100Z,3.40
2019-03-15T03:22:21.122Z,3.45
2019-03-15T03:24:48.172Z,3.51
2019-03-15T03:27:15.565Z,3.54
2019-03-15T03:29:42.612Z,3.57
2019-03-15T03:32:09.648Z,3.59
2019-03-15T03:34:36.704Z,3.62
2019-03-15T03:37:03.729Z,3.63
2019-03-15T03:39:31.109Z,3.62
2019-03-15T03:41:58.468Z,3.64
2019-03-15T03:44:25.508Z,3.70
2019-03-15T03:46:52.884Z,3.75
2019-03-15T03:49:19.937Z,3.76
2019-03-15T03:51:46.970Z,3.77
2019-03-15T03:54:14.317Z,3.76
2019-03-15T03:56:41.595Z,3.76
2019-03-15T03:59:08.885Z,3.76
2019-03-15T04:01:36.277Z,3.78
2019-03-15T04:04:03.330Z,3.78
2019-03-15T04:06:30.411Z,3.80
2019-03-15T04:08:57.460Z,3.84
2019-03-15T04:11:24.780Z,3.86
2019-03-15T04:13:51.826Z,3.86
2019-03-15T04:16:19.131Z,3.87
2019-03-15T04:18:46.177Z,3.88
2019-03-15T04:21:13.217Z,3.87
2019-03-15T04:23:40.631Z,3.90
2019-03-15T04:26:08.645Z,3.88
2019-03-15T04:28:35.944Z,3.87
2019-03-15T04:31:03.309Z,3.84
2019-03-15T04:33:30.441Z,3.81
2019-03-15T04:35:57.832Z,3.76
2019-03-15T04:38:25.169Z,3.76
2019-03-15T04:40:52.523Z,3.79
2019-03-15T04:43:19.902Z,3.80
2019-03-15T04:45:47.254Z,3.83
2019-03-15T04:48:14.590Z,3.87
2019-03-15T04:50:41.902Z,3.88
2019-03-15T04:53:09.317Z,3.94
2019-03-15T04:55:42.601Z,3.95
2019-03-15T04:58:09.949Z,3.97
2019-03-15T05:00:37.304Z,3.99
2019-03-15T05:03:04.661Z,3.99
2019-03-15T05:05:31.720Z,4.01
2019-03-15T05:07:58.757Z,4.02
2019-03-15T05:10:25.809Z,4.04
2019-03-15T05:12:58.383Z,4.05
2019-03-15T05:15:25.757Z,4.08
2019-03-15T05:17:54.217Z,4.09
2019-03-15T05:20:21.581Z,4.10
2019-03-15T05:22:49.154Z,4.12
2019-03-15T05:25:16.204Z,4.13
2019-03-15T05:27:43.236Z,4.16
2019-03-15T05:30:10.590Z,4.18
2019-03-15T05:32:40.090Z,4.22
2019-03-15T05:35:07.141Z,4.23
2019-03-15T05:37:34.178Z,4.24
2019-03-15T05:40:01.543Z,4.26
2019-03-15T05:42:28.581Z,4.31
2019-03-15T05:44:55.947Z,4.32
2019-03-15T05:47:22.997Z,4.36
2019-03-15T05:49:50.270Z,4.39
2019-03-15T05:52:17.318Z,4.38
2019-03-15T05:54:44.653Z,4.39
2019-03-15T05:57:11.960Z,4.43
2019-03-15T05:59:38.997Z,4.45
2019-03-15T06:02:06.052Z,4.44
2019-03-15T06:04:33.377Z,4.45
2019-03-15T06:07:00.424Z,4.47
2019-03-15T06:09:27.459Z,4.47
2019-03-15T06:11:54.679Z,4.49
2019-03-15T06:14:21.694Z,4.49
2019-03-15T06:16:48.743Z,4.48
2019-03-15T06:19:16.018Z,4.46
2019-03-15T06:21:43.408Z,4.46
2019-03-15T06:24:10.790Z,4.45
2019-03-15T06:26:38.097Z,4.41
2019-03-15T06:29:05.475Z,4.42
2019-03-15T06:31:32.831Z,4.43
2019-03-15T06:34:00.178Z,4.40
2019-03-15T06:36:27.229Z,4.42
2019-03-15T06:38:54.581Z,4.38
2019-03-15T06:41:21.880Z,4.39
2019-03-15T06:43:49.208Z,4.39
2019-03-15T06:46:16.508Z,4.42
2019-03-15T06:48:45.250Z,4.44
2019-03-15T06:51:12.793Z,4.44
2019-03-15T06:53:39.913Z,4.42
2019-03-15T06:56:06.946Z,4.41
2019-03-15T06:58:34.246Z,4.40
2019-03-15T07:01:01.616Z,4.36
2019-03-15T07:03:28.972Z,4.33
2019-03-15T07:05:56.001Z,4.31
2019-03-15T07:08:23.354Z,4.27
2019-03-15T07:10:50.708Z,4.24
2019-03-15T07:13:18.066Z,4.23
2019-03-15T07:15:45.095Z,4.24
2019-03-15T07:18:12.145Z,4.27
2019-03-15T07:20:39.182Z,4.27
2019-03-15T07:23:06.478Z,4.24
2019-03-15T07:25:33.836Z,4.25
2019-03-15T07:28:01.175Z,4.21
2019-03-15T07:30:28.206Z,4.20
2019-03-15T07:32:56.474Z,4.22
2019-03-15T07:35:24.265Z,4.29
2019-03-15T07:37:51.387Z,4.31
2019-03-15T07:40:18.550Z,4.34
2019-03-15T07:42:45.551Z,4.31
2019-03-15T07:45:12.583Z,4.32
2019-03-15T07:47:39.911Z,4.35
2019-03-15T07:50:06.943Z,4.36
2019-03-15T07:52:34.312Z,4.33
2019-03-15T07:55:01.699Z,4.36
2019-03-15T07:57:28.969Z,4.33
2019-03-15T07:59:56.275Z,4.36
2019-03-15T08:02:23.629Z,4.39
2019-03-15T08:04:51.917Z,4.37
2019-03-15T08:07:20.182Z,4.33
2019-03-15T08:09:51.062Z,4.33
2019-03-15T08:12:16.917Z,4.36
2019-03-15T08:14:43.946Z,4.39
2019-03-15T08:17:10.992Z,4.44
2019-03-15T08:19:38.311Z,4.47
2019-03-15T08:22:05.356Z,4.52
2019-03-15T08:24:32.387Z,4.51
2019-03-15T08:26:59.415Z,4.63
2019-03-15T08:29:26.793Z,4.70
2019-03-15T08:31:54.269Z,4.70
2019-03-15T08:34:21.602Z,4.75
2019-03-15T08:36:48.635Z,4.79
2019-03-15T08:39:15.681Z,4.86
2019-03-15T08:41:43.053Z,5.01
2019-03-15T08:44:10.454Z,5.11
2019-03-15T08:46:37.766Z,5.20
2019-03-15T08:49:04.816Z,5.16
2019-03-15T08:51:32.169Z,5.20
2019-03-15T08:53:59.520Z,5.18
2019-03-15T08:56:26.892Z,5.32
2019-03-15T08:58:54.231Z,5.43
2019-03-15T09:01:23.800Z,5.40
2019-03-15T09:03:50.376Z,5.48
2019-03-15T09:06:17.749Z,5.48
2019-03-15T09:08:45.084Z,5.44
2019-03-15T09:11:12.121Z,5.59
2019-03-15T09:13:39.162Z,5.68
2019-03-15T09:16:06.556Z,5.77
2019-03-15T09:18:34.272Z,6.01
2019-03-15T09:21:01.314Z,6.09
2019-03-15T09:23:28.707Z,6.20
2019-03-15T09:25:56.068Z,6.29
2019-03-15T09:28:23.118Z,6.33
2019-03-15T09:30:50.670Z,6.34
2019-03-15T09:33:17.718Z,6.32
2019-03-15T09:35:44.749Z,6.33
2019-03-15T09:38:12.122Z,6.24
2019-03-15T09:40:39.482Z,6.28
2019-03-15T09:43:06.512Z,6.41
2019-03-15T09:45:33.560Z,6.28
2019-03-15T09:48:00.587Z,6.29
2019-03-15T09:50:34.215Z,6.27
2019-03-15T09:52:56.661Z,6.48
2019-03-15T09:55:32.845Z,6.49
2019-03-15T09:57:52.745Z,6.51
2019-03-15T10:00:19.798Z,6.57
2019-03-15T10:02:46.898Z,6.57
2019-03-15T10:05:13.984Z,6.50
2019-03-15T10:07:43.438Z,6.45
2019-03-15T10:10:13.802Z,6.32
2019-03-15T10:12:38.745Z,6.28
2019-03-15T10:15:07.956Z,6.37
2019-03-15T10:17:34.828Z,6.40
2019-03-15T10:20:01.890Z,6.46
2019-03-15T10:22:28.899Z,6.58
2019-03-15T10:24:55.944Z,6.87
2019-03-15T10:27:22.991Z,7.05
2019-03-15T10:29:50.016Z,7.10
2019-03-15T10:32:17.314Z,7.00
2019-03-15T10:34:44.362Z,7.08
2019-03-15T10:37:11.389Z,7.27
2019-03-15T10:39:38.437Z,7.45
2019-03-15T10:42:05.468Z,7.46
2019-03-15T10:44:32.518Z,7.50
2019-03-15T10:46:59.549Z,7.44
2019-03-15T10:49:26.960Z,7.53
2019-03-15T10:51:53.989Z,7.55
2019-03-15T10:54:21.361Z,7.76
2019-03-15T10:56:48.462Z,7.95
2019-03-15T10:59:15.863Z,8.03
2019-03-15T11:01:42.895Z,8.04
2019-03-15T11:04:10.301Z,8.03
2019-03-15T11:06:37.621Z,7.88
2019-03-15T11:09:04.653Z,7.77
2019-03-15T11:11:31.700Z,7.77
2019-03-15T11:13:59.071Z,7.91
2019-03-15T11:16:26.430Z,8.05
2019-03-15T11:18:53.460Z,8.13
2019-03-15T11:21:20.508Z,8.15
2019-03-15T11:23:47.539Z,8.22
2019-03-15T11:26:14.923Z,8.16
2019-03-15T11:28:42.296Z,8.19
2019-03-15T11:31:10.767Z,8.07
2019-03-15T11:33:37.797Z,7.97
2019-03-15T11:36:05.809Z,8.06
2019-03-15T11:38:33.137Z,8.11
2019-03-15T11:41:00.488Z,8.13
2019-03-15T11:43:27.519Z,8.22
2019-03-15T11:45:54.894Z,8.25
2019-03-15T11:48:22.268Z,8.23
2019-03-15T11:50:49.311Z,8.23
2019-03-15T11:53:18.945Z,8.21
2019-03-15T11:55:45.341Z,8.25
2019-03-15T11:58:12.376Z,8.32
2019-03-15T12:00:39.425Z,8.34
2019-03-15T12:03:06.707Z,8.39
2019-03-15T12:05:33.761Z,8.52
2019-03-15T12:08:12.685Z,8.51
2019-03-15T12:10:39.732Z,8.63
2019-03-15T12:13:06.764Z,8.67
2019-03-15T12:15:36.319Z,8.65
2019-03-15T12:18:02.899Z,8.65
2019-03-15T12:20:30.256Z,8.66
2019-03-15T12:22:57.287Z,8.64
2019-03-15T12:25:24.663Z,8.67
2019-03-15T12:27:52.018Z,8.65
2019-03-15T12:30:19.059Z,8.68
2019-03-15T12:32:46.098Z,8.76
2019-03-15T12:35:13.385Z,8.80
2019-03-15T12:37:40.419Z,8.77
2019-03-15T12:40:07.461Z,8.69
2019-03-15T12:42:34.811Z,8.61
2019-03-15T12:45:01.875Z,8.62
2019-03-15T12:47:28.889Z,8.57
2019-03-15T12:49:55.937Z,8.56
2019-03-15T12:52:23.315Z,8.56
2019-03-15T12:54:50.361Z,8.56
2019-03-15T12:57:17.713Z,8.54
2019-03-15T12:59:44.982Z,8.52
2019-03-15T13:02:12.325Z,8.53
2019-03-15T13:04:39.356Z,8.51
2019-03-15T13:07:06.400Z,8.52
2019-03-15T13:09:33.436Z,8.53
2019-03-15T13:12:00.819Z,8.49
2019-03-15T13:14:28.100Z,8.51
2019-03-15T13:16:55.428Z,8.53
2019-03-15T13:19:22.804Z,8.56
2019-03-15T13:21:49.852Z,8.57
2019-03-15T13:24:16.880Z,8.57
2019-03-15T13:26:44.256Z,8.53
2019-03-15T13:29:11.589Z,8.51
2019-03-15T13:31:38.637Z,8.57
2019-03-15T13:34:05.996Z,8.58
2019-03-15T13:36:33.043Z,8.61
2019-03-15T13:39:00.077Z,8.65
2019-03-15T13:41:27.446Z,8.60
2019-03-15T13:43:54.901Z,8.58
2019-03-15T13:46:22.257Z,8.59
2019-03-15T13:48:49.715Z,8.56
2019-03-15T13:51:16.765Z,8.54
2019-03-15T13:53:43.797Z,8.53
2019-03-15T13:56:11.168Z,8.51
2019-03-15T13:58:38.543Z,8.56
2019-03-15T14:01:05.595Z,8.54
2019-03-15T14:03:32.623Z,8.53
2019-03-15T14:05:59.972Z,8.56
2019-03-15T14:08:27.328Z,8.56
2019-03-15T14:10:54.706Z,8.54
2019-03-15T14:13:22.058Z,8.53
2019-03-15T14:15:49.365Z,8.51
2019-03-15T14:18:16.658Z,8.49
2019-03-15T14:20:43.708Z,8.49
2019-03-15T14:23:10.986Z,8.47
2019-03-15T14:25:39.104Z,8.47
2019-03-15T14:28:06.474Z,8.47
2019-03-15T14:30:33.503Z,8.47
2019-03-15T14:33:00.883Z,8.49
2019-03-15T14:35:27.922Z,8.49
2019-03-15T14:37:55.004Z,8.51
2019-03-15T14:40:22.103Z,8.48
2019-03-15T14:42:50.271Z,8.49
2019-03-15T14:45:17.596Z,8.50
2019-03-15T14:47:45.987Z,8.51
2019-03-15T14:50:13.291Z,8.53
2019-03-15T14:52:40.436Z,8.52
2019-03-15T14:55:07.437Z,8.50
2019-03-15T14:57:35.608Z,8.48
2019-03-15T15:00:02.588Z,8.49
2019-03-15T15:02:30.003Z,8.48
2019-03-15T15:04:57.027Z,8.47
2019-03-15T15:07:24.375Z,8.46
2019-03-15T15:09:52.227Z,8.47
2019-03-15T15:12:19.788Z,8.48
2019-03-15T15:14:46.825Z,8.47
2019-03-15T15:17:14.192Z,8.48
2019-03-15T15:19:41.563Z,8.46
2019-03-15T15:22:08.613Z,8.44
2019-03-15T15:24:35.967Z,8.42
2019-03-15T15:27:03.304Z,8.42
2019-03-15T15:29:30.335Z,8.41
2019-03-15T15:31:57.382Z,8.41
2019-03-15T15:34:24.409Z,8.43
2019-03-15T15:36:51.453Z,8.44
2019-03-15T15:39:18.764Z,8.43
2019-03-15T15:41:46.104Z,8.42
2019-03-15T15:44:13.136Z,8.43
2019-03-15T15:46:40.508Z,8.42
2019-03-15T15:49:07.883Z,8.41
2019-03-15T15:51:34.931Z,8.41
2019-03-15T15:54:01.959Z,8.40
2019-03-15T15:56:29.009Z,8.40
2019-03-15T15:58:56.359Z,8.40
2019-03-15T16:01:23.739Z,8.42
2019-03-15T16:06:32.169Z,8.40
2019-03-15T16:08:59.203Z,8.39
2019-03-15T16:11:26.551Z,8.38
2019-03-15T16:13:53.600Z,8.38
2019-03-15T16:16:20.656Z,8.39
2019-03-15T16:18:48.070Z,8.37
2019-03-15T16:21:15.492Z,8.38
2019-03-15T16:23:42.541Z,8.38
2019-03-15T16:26:09.863Z,8.38
2019-03-15T16:28:36.935Z,8.37
2019-03-15T16:31:03.965Z,8.37
2019-03-15T16:33:31.467Z,8.38
2019-03-15T16:35:58.447Z,8.37
2019-03-15T16:38:25.492Z,8.36
2019-03-15T16:40:52.868Z,8.36
2019-03-15T16:43:22.191Z,8.37
2019-03-15T16:46:07.805Z,8.37
2019-03-15T16:48:35.236Z,8.35
2019-03-15T16:51:19.721Z,8.38
2019-03-15T16:56:32.683Z,8.36
2019-03-15T17:04:06.650Z,8.43
2019-03-15T17:06:41.924Z,8.44
2019-03-15T17:09:10.102Z,8.43
2019-03-15T17:11:48.228Z,8.42
2019-03-15T17:16:54.298Z,8.43
2019-03-15T17:19:37.716Z,8.44
2019-03-15T17:22:04.989Z,8.46
2019-03-15T17:24:36.415Z,8.43
2019-03-15T17:27:04.591Z,8.39
2019-03-15T17:29:32.778Z,8.38
2019-03-15T17:32:01.959Z,8.36
2019-03-15T17:39:34.807Z,8.35
2019-03-15T17:42:03.059Z,8.36
2019-03-15T17:44:30.589Z,8.35
2019-03-15T17:47:01.855Z,8.36
2019-03-15T17:49:34.159Z,8.37
2019-03-15T17:52:02.190Z,8.38
2019-03-15T17:54:31.417Z,8.37
2019-03-15T17:57:01.619Z,8.37
2019-03-15T17:59:33.707Z,8.39
2019-03-15T18:02:03.134Z,8.38
2019-03-15T18:04:33.844Z,8.39
2019-03-15T18:10:05.273Z,8.37
2019-03-15T18:12:48.737Z,8.35
2019-03-15T18:15:16.260Z,8.35
2019-03-15T18:23:09.810Z,8.35
2019-03-15T18:25:39.276Z,8.34
2019-03-15T18:33:20.221Z,8.35
2019-03-15T18:35:48.383Z,8.36
2019-03-15T18:38:29.857Z,8.35
2019-03-15T18:40:57.030Z,8.37
2019-03-15T18:43:25.203Z,8.36
2019-03-15T18:45:53.383Z,8.35
2019-03-15T18:48:20.609Z,8.36
2019-03-15T18:50:47.783Z,8.35
2019-03-15T18:53:30.277Z,8.36
2019-03-15T18:58:39.542Z,8.34
2019-03-15T19:01:06.797Z,8.37
2019-03-15T19:03:35.207Z,8.35
2019-03-15T19:06:06.070Z,8.36
2019-03-15T19:08:33.422Z,8.36
2019-03-15T19:16:20.354Z,8.37
2019-03-15T19:18:45.916Z,8.38
2019-03-15T19:21:16.261Z,8.37
2019-03-15T19:26:33.775Z,8.37
2019-03-15T19:29:04.217Z,8.35
2019-03-15T19:31:31.479Z,8.37
2019-03-15T19:34:08.843Z,8.38
2019-03-15T19:41:54.656Z,8.37
2019-03-15T19:44:24.066Z,8.37
2019-03-15T19:49:24.643Z,8.36
2019-03-15T19:51:52.156Z,8.37
2019-03-15T19:54:20.369Z,8.37
2019-03-15T19:56:49.672Z,8.36
2019-03-15T19:59:32.656Z,8.35
2019-03-15T20:07:19.402Z,8.34
2019-03-15T20:09:46.753Z,8.35
2019-03-15T20:12:20.281Z,8.34
2019-03-15T20:14:49.533Z,8.38
2019-03-15T20:17:16.752Z,8.36
2019-03-15T20:19:43.984Z,8.34
2019-03-15T20:22:16.351Z,8.36
2019-03-15T20:24:45.660Z,8.35
2019-03-15T20:32:18.861Z,8.35
2019-03-15T20:34:52.867Z,8.36
2019-03-15T20:37:20.345Z,8.36
2019-03-15T20:39:49.561Z,8.34
2019-03-15T20:42:17.298Z,8.34
2019-03-15T20:44:45.594Z,8.34
2019-03-15T20:47:13.887Z,8.34
2019-03-15T20:49:46.421Z,8.35
2019-03-15T20:54:49.959Z,8.32
2019-03-15T20:57:17.137Z,8.34
2019-03-15T20:59:44.368Z,8.33
2019-03-15T21:02:15.839Z,8.35
2019-03-15T21:04:49.936Z,8.33
2019-03-15T21:09:51.085Z,8.34
2019-03-15T21:12:22.260Z,8.33
2019-03-15T21:14:49.493Z,8.34
2019-03-15T21:17:21.584Z,8.35
2019-03-15T21:19:49.731Z,8.36
2019-03-15T21:22:23.308Z,8.36
2019-03-15T21:24:50.479Z,8.37
2019-03-15T21:29:53.917Z,8.37
2019-03-15T21:32:21.337Z,8.37
2019-03-15T21:35:04.656Z,8.36
2019-03-15T21:37:32.220Z,8.34
2019-03-15T21:40:00.422Z,8.34
2019-03-15T21:45:17.787Z,8.35
2019-03-15T21:47:46.213Z,8.32
2019-03-15T21:50:15.440Z,8.33
2019-03-15T21:52:42.711Z,8.34
2019-03-15T21:55:16.713Z,8.35
2019-03-15T22:00:19.242Z,8.34
2019-03-15T22:02:46.835Z,8.32
2019-03-15T22:05:19.233Z,8.33
2019-03-15T22:07:50.718Z,8.32
2019-03-15T22:10:17.753Z,8.32
2019-03-15T22:15:23.471Z,8.34
2019-03-15T22:17:50.861Z,8.34
2019-03-15T22:23:09.240Z,8.33
2019-03-15T22:28:16.961Z,8.32
2019-03-15T22:30:52.173Z,8.31
2019-03-15T22:35:53.841Z,8.30
2019-03-15T22:38:26.484Z,8.28
2019-03-15T22:40:50.920Z,8.28
2019-03-15T22:45:52.195Z,8.28
2019-03-15T22:48:23.705Z,8.27
2019-03-15T22:50:51.460Z,8.29
2019-03-15T22:53:21.054Z,8.28
2019-03-15T22:55:52.398Z,8.29
2019-03-15T22:58:21.984Z,8.29
2019-03-15T23:00:50.460Z,8.30
2019-03-15T23:05:54.390Z,8.28
2019-03-15T23:08:21.698Z,8.29
2019-03-15T23:10:48.855Z,8.27
2019-03-15T23:13:16.052Z,8.27
2019-03-15T23:15:50.968Z,8.26
2019-03-15T23:18:20.310Z,8.26
2019-03-15T23:23:48.743Z,8.25
2019-03-15T23:26:24.718Z,8.25
2019-03-15T23:28:52.091Z,8.25
2019-03-15T23:31:26.189Z,8.25
2019-03-15T23:33:54.637Z,8.24
2019-03-15T23:36:21.935Z,8.24
2019-03-15T23:38:52.939Z,8.23
2019-03-15T23:41:20.209Z,8.25
2019-03-15T23:43:48.170Z,8.25
2019-03-15T23:46:15.530Z,8.24
2019-03-15T23:48:42.574Z,8.23
2019-03-15T23:51:09.913Z,8.21
2019-03-15T23:53:36.965Z,8.20
2019-03-15T23:56:04.243Z,8.22
2019-03-15T23:58:33.718Z,8.20
